Station info - map view · info · telemetry · weather · raw · status · beacons · messages · bulletins · browse · moving · my account
Callsign, ship name or locator: Clear       
It is possible to search using wildcards (*?) after a prefix. Example: OH*
APRS station LB6EG-8 - show graphs
Map loading...
Mic-E message: Off duty
Location: 61°44.62' N 9°33.78' E - locator JP41SR78NL - show map - static map
2.1 miles Southeast bearing 155° from Otta, Sel, Oppland county, Norway [?]
12.0 miles Northwest bearing 329° from Vinstra, Nord-Fron, Oppland county, Norway
52.7 miles Northwest bearing 326° from Lillehammer, Lillehammer, Oppland county, Norway
82.4 miles Northwest bearing 323° from Hamar, Hamar, Hedmark county, Norway
Last position: 2019-05-25 11:50:59 EDT (1h14m ago)
2019-05-25 17:50:59 CEST local time at Otta, Norway [?]
Altitude: 1142 ft
Course: 333°
Speed: 6 MPH
Device: Kenwood: TM-D710 (rig)
Last path: LB6EG-8>VQTTV2 via LD2GG,WIDE1*,WIDE2-2,qAR,LD2GI (good)
Positions stored: 10812
Packet rate: 230 seconds between packets on average during 2299 seconds.
Other SSIDs: LB6EG-9
Stations near current position of LB6EG-8 - show more
callsign distance last heard - EDT      callsign distance last heard - EDT
LB6EG-90.0 yards 0°2019-05-25 12:55:46 PA3DXL-52.7 miles 318°2019-05-25 12:52:45
PA3DXL-95.8 miles 298°2019-05-25 06:05:53 LB1BF-78.6 miles 276°2019-05-24 08:05:46
LB4GH-108.7 miles 276°2019-05-25 12:52:29 LA3TR-711.2 miles 152°2019-04-28 10:51:14
LD2JB14.0 miles 320°2019-05-25 12:42:38 LB9UE15.0 miles 140°2019-05-04 12:11:11
LD2GG17.6 miles 154°2019-05-25 12:53:16 LE1ESS21.4 miles 130°2019-05-25 12:32:07
LE1ESR22.4 miles 207°2019-05-16 12:51:58 LB9UE-923.9 miles 328°2019-05-21 05:35:17
Stations which heard LB6EG-8 directly on radio –
callsign pkts first heard - EDT last heard longest (tx => rx) longest at - EDT
LD2LH 6 2019-05-06 01:47:37 2019-05-22 02:46:37 JP50JR > JP51GD 29.1 miles 340° 2019-05-06 11:05:51
LD2KS 25 2019-05-06 03:19:04 2019-05-22 02:44:05 JP50IT > JP50XE 63.2 miles 134° 2019-05-22 02:44:05
LD3GT 1 2019-05-22 04:07:56 2019-05-22 04:07:56 JP50KB > JO49HU 78.2 miles 261° 2019-05-22 04:07:56
LD3HV 1 2019-05-22 05:08:50 2019-05-22 05:08:50 JO59JW > JO59CN 33.4 miles 216° 2019-05-22 05:08:50
LD2GG 125 2019-05-03 13:55:40 2019-05-25 11:50:59 JP41SS > JP41VM 20.7 miles 157° 2019-05-07 09:06:06
LD2RK 27 2019-05-06 03:25:39 2019-05-22 05:51:17 JP50IF > JP50PF 18.9 miles 91° 2019-05-22 05:51:17
LB8CC-10 18 2019-05-06 07:24:15 2019-05-06 09:23:01 JP50WF > JP60AE 6.6 miles 112° 2019-05-06 09:23:01
LA7MOA-2 3 2019-05-06 04:21:32 2019-05-06 09:38:27 JP50RE > JP50TE 7.4 miles 92° 2019-05-06 05:41:24
LA1HSA-2 27 2019-05-06 03:55:04 2019-05-22 05:43:32 JP50RE > JP50MA 19.5 miles 228° 2019-05-06 04:25:18
LD2JB 45 2019-05-06 00:50:59 2019-05-25 11:49:04 JP41UO > JP41PV 24.8 miles 326° 2019-05-06 13:33:12
LD2BI 38 2019-05-06 03:32:31 2019-05-22 05:51:53 JP50TF > JP50HF 36.3 miles 271° 2019-05-06 07:07:22
LD2GR 14 2019-05-22 02:39:13 2019-05-22 07:10:04 JP50HL > JP50IQ 13.4 miles 7° 2019-05-22 03:20:50
LA3HX-10 1 2019-05-22 05:17:38 2019-05-22 05:17:38 JO59KW > JO59KV 3.5 miles 191° 2019-05-22 05:17:38
LD3TO 6 2019-05-06 10:55:39 2019-05-22 06:54:34 JP50LP > JP40XJ 36.1 miles 242° 2019-05-06 10:55:39
LA1PKA-10 80 2019-05-06 01:50:06 2019-05-22 07:51:48 JP50LP > JP51FA 30.2 miles 326° 2019-05-06 10:52:25
LB1NF-2 12 2019-05-06 01:20:04 2019-05-22 08:14:24 JP51DH > JP51CL 11.8 miles 344° 2019-05-06 12:55:59
LB1HG-10 1 2019-05-22 04:20:36 2019-05-22 04:20:36 JO59KW > JO59GQ 21.2 miles 216° 2019-05-22 04:20:36
LA4LSA-2 18 2019-05-06 02:58:15 2019-05-06 12:14:28 JP50OM > JP50KT 22.3 miles 332° 2019-05-06 10:35:55
LD2GI 66 2019-05-06 02:17:36 2019-05-22 07:14:10 JP50HW > JP50HJ 39.0 miles 180° 2019-05-06 12:23:27
LD2LK 14 2019-05-06 01:46:38 2019-05-22 07:55:05 JP50RE > JP51CA 71.3 miles 325° 2019-05-06 03:56:05
LD2GN 6 2019-05-06 03:16:31 2019-05-06 10:40:21 JP50OI > JP50QX 43.4 miles 6° 2019-05-06 03:30:31
LA6UMA-10 1 2019-05-22 04:20:08 2019-05-22 04:20:08 JO59KW > JO59KX 1.3 miles 41° 2019-05-22 04:20:08
LD1OS 36 2019-05-22 04:18:43 2019-05-22 05:19:06 JO59KX > JO59IV 6.3 miles 240° 2019-05-22 05:19:06
LA9GTA-1 20 2019-05-06 03:23:08 2019-05-06 10:58:30 JP50RC > JP50MI 22.3 miles 326° 2019-05-06 05:51:18

Only position packets which were originated by the station are shown here. The range statistics show some extra long hops, because some digipeaters do not correctly add themselves to the digipeater path. Please check the raw packets.
About this site
This page shows real-time information collected from the Automatic Position Reporting System Internet network (APRS-IS). APRS is used by amateur (ham) radio operators to transmit real-time position information, weather data, telemetry and messages over the radio. A vehicle equipped with a GPS receiver, a VHF transmitter or HF transceiver and a small computer device called a tracker transmits it's location, speed and course in a small data packet, which is then received by a nearby iGate receiving site which forwards the packet on the Internet. Systems connected to the Internet can send information on the APRS-IS without a radio transmitter, or collect and display information transmitted anywhere in the world.
FAQ · Blog · Discussion group · Linking to aprs.fi · AIS sites · Service status · Database statistics · Advertising on aprs.fi · Technical details · API · Change log · Planned changes · Credits and thanks · Terms Of Service · iPhone/iPad APRS